Time;durP1;ratioP1;P1;durP2;ratioP2;P2;SDS_P1;SDS_P2;PMS_P1;PMS_P2;Temp;Humidity;BMP_temperature;BMP_pressure;BME280_temperature;BME280_humidity;BME280_pressure;Samples;Min_cycle;Max_cycle;Signal;HPM_P1;HPM_P2
2022/04/18 08:11:29;;;;;;;;;4.50;4.50;;;;;;;;5188109;27;87983;-71
2022/04/18 08:13:54;;;;;;;;;5.50;5.50;;;;;;;;5177126;27;22705;-71
2022/04/18 08:16:20;;;;;;;;;4.00;4.00;;;;;;;;5179004;27;8769;-71
2022/04/18 08:18:45;;;;;;;;;6.00;6.00;;;;;;;;5179180;27;11291;-71
2022/04/18 08:21:11;;;;;;;;;5.00;5.00;;;;;;;;5178582;27;9603;-71
2022/04/18 08:23:37;;;;;;;;;3.00;3.00;;;;;;;;5179323;27;8889;-71
2022/04/18 08:26:03;;;;;;;;;4.50;4.50;;;;;;;;5179384;27;11262;-71
2022/04/18 08:28:28;;;;;;;;;6.75;5.00;;;;;;;;5178926;27;12372;-71
2022/04/18 08:30:54;;;;;;;;;5.00;5.00;;;;;;;;5179151;27;11296;-71
2022/04/18 08:33:19;;;;;;;;;5.00;5.00;;;;;;;;5177426;27;11150;-71
2022/04/18 08:35:45;;;;;;;;;4.75;4.75;;;;;;;;5179192;27;8777;-71
2022/04/18 08:38:10;;;;;;;;;5.00;5.00;;;;;;;;5178716;27;11292;-71
2022/04/18 08:40:37;;;;;;;;;6.75;5.00;;;;;;;;5176785;27;13349;-70
2022/04/18 08:43:02;;;;;;;;;4.00;4.00;;;;;;;;5179070;27;9422;-70
2022/04/18 08:45:27;;;;;;;;;5.33;4.33;;;;;;;;5178941;27;10522;-71
2022/04/18 08:53:26;;;;;;;;;3.00;3.00;;;;;;;;5179141;27;8847;-71
2022/04/18 08:55:52;;;;;;;;;4.75;4.50;;;;;;;;5178860;27;8786;-70
2022/04/18 08:58:18;;;;;;;;;3.75;3.75;;;;;;;;5178711;27;11372;-70
2022/04/18 09:00:43;;;;;;;;;3.00;3.00;;;;;;;;5178757;27;11487;-70
2022/04/18 09:03:08;;;;;;;;;4.00;4.00;;;;;;;;5176976;27;9077;-70
2022/04/18 09:05:34;;;;;;;;;5.00;4.00;;;;;;;;5178448;27;9857;-70
2022/04/18 09:08:00;;;;;;;;;6.00;3.00;;;;;;;;5176605;27;8797;-71
2022/04/18 09:10:26;;;;;;;;;4.00;4.00;;;;;;;;5178110;27;9012;-71
2022/04/18 09:12:51;;;;;;;;;3.67;3.67;;;;;;;;5177133;27;9022;-71
2022/04/18 09:15:49;;;;;;;;;3.00;3.00;;;;;;;;5178832;27;11282;-71
2022/04/18 09:18:17;;;;;;;;;3.00;3.00;;;;;;;;5133811;27;8766;-71
2022/04/18 09:20:49;;;;;;;;;3.00;3.00;;;;;;;;5115791;27;8801;-71
2022/04/18 09:23:33;;;;;;;;;3.75;3.75;;;;;;;;5120482;28;8889;-71
2022/04/18 09:25:59;;;;;;;;;4.00;4.00;;;;;;;;5120537;28;8868;-71
2022/04/18 09:28:34;;;;;;;;;4.00;4.00;;;;;;;;5148637;27;11328;-71
2022/04/18 09:31:01;;;;;;;;;3.00;3.00;;;;;;;;5162355;27;8789;-71
2022/04/18 09:33:40;;;;;;;;;3.00;3.00;;;;;;;;5164235;27;9631;-71
2022/04/18 09:36:06;;;;;;;;;5.00;4.00;;;;;;;;5163417;27;8805;-71
2022/04/18 09:38:35;;;;;;;;;3.00;3.00;;;;;;;;5164127;27;8785;-71
2022/04/18 09:41:00;;;;;;;;;3.75;3.00;;;;;;;;5164226;27;8912;-71
2022/04/18 09:43:35;;;;;;;;;4.00;4.00;;;;;;;;5164399;27;8923;-71
2022/04/18 09:46:00;;;;;;;;;3.75;3.75;;;;;;;;5164281;27;10603;-71
2022/04/18 09:48:31;;;;;;;;;5.00;5.00;;;;;;;;5164059;27;11347;-71
2022/04/18 09:50:59;;;;;;;;;3.50;3.50;;;;;;;;5164238;27;11362;-71
2022/04/18 09:53:25;;;;;;;;;3.50;3.00;;;;;;;;5164361;27;12048;-71
2022/04/18 09:55:54;;;;;;;;;2.00;2.00;;;;;;;;5164444;27;8774;-71
2022/04/18 09:58:19;;;;;;;;;3.00;3.00;;;;;;;;5162954;27;10985;-71
2022/04/18 10:00:45;;;;;;;;;5.00;4.00;;;;;;;;5163926;27;9794;-71
2022/04/18 10:03:10;;;;;;;;;4.00;3.67;;;;;;;;5164097;27;8793;-72
2022/04/18 10:05:36;;;;;;;;;3.00;3.00;;;;;;;;5164005;27;11315;-72
2022/04/18 10:08:04;;;;;;;;;4.00;4.00;;;;;;;;5163640;27;11281;-71
2022/04/18 10:10:33;;;;;;;;;4.00;4.00;;;;;;;;5163808;27;8816;-71
2022/04/18 10:12:58;;;;;;;;;3.00;3.00;;;;;;;;5163405;27;8858;-72
2022/04/18 10:15:26;;;;;;;;;3.00;3.00;;;;;;;;5163078;27;8823;-71
2022/04/18 10:17:52;;;;;;;;;2.75;2.00;;;;;;;;5163893;27;8757;-72
2022/04/18 10:20:50;;;;;;;;;3.00;3.00;;;;;;;;5163253;27;10414;-71
2022/04/18 10:23:34;;;;;;;;;3.00;3.00;;;;;;;;5139813;27;10644;-71
2022/04/18 10:26:02;;;;;;;;;3.00;3.00;;;;;;;;5163876;27;8910;-71
2022/04/18 10:28:34;;;;;;;;;2.00;2.00;;;;;;;;5163380;27;9224;-71
2022/04/18 10:31:01;;;;;;;;;2.00;2.00;;;;;;;;5163624;27;9060;-71
2022/04/18 10:33:26;;;;;;;;;3.00;3.00;;;;;;;;5160888;27;9329;-71
2022/04/18 10:35:52;;;;;;;;;3.00;3.00;;;;;;;;5161259;27;9206;-72
2022/04/18 10:38:20;;;;;;;;;3.00;3.00;;;;;;;;5161678;27;8785;-72
2022/04/18 10:40:46;;;;;;;;;3.25;3.25;;;;;;;;5162851;27;9404;-72
2022/04/18 10:43:13;;;;;;;;;4.00;2.25;;;;;;;;5161439;27;10128;-72
2022/04/18 10:45:40;;;;;;;;;4.00;4.00;;;;;;;;5163529;27;10430;-72
2022/04/18 10:48:07;;;;;;;;;3.25;3.00;;;;;;;;5161463;27;9795;-72
2022/04/18 10:50:33;;;;;;;;;3.00;3.00;;;;;;;;5162439;27;10512;-72
2022/04/18 10:53:19;;;;;;;;;3.75;3.75;;;;;;;;5163431;27;9831;-72
2022/04/18 10:55:50;;;;;;;;;5.25;4.75;;;;;;;;5161345;27;9864;-72
2022/04/18 10:58:17;;;;;;;;;4.00;4.00;;;;;;;;5162642;27;10049;-71
2022/04/18 11:00:45;;;;;;;;;5.75;4.00;;;;;;;;5162607;27;11573;-72
2022/04/18 11:03:10;;;;;;;;;5.00;5.00;;;;;;;;5163024;27;9863;-71
2022/04/18 11:05:38;;;;;;;;;4.00;3.75;;;;;;;;5162550;27;9792;-72
2022/04/18 11:08:23;;;;;;;;;3.75;3.75;;;;;;;;5162898;27;11992;-71
2022/04/18 11:10:49;;;;;;;;;4.00;4.00;;;;;;;;5162323;27;10033;-71
2022/04/18 11:13:14;;;;;;;;;5.00;4.00;;;;;;;;5162813;27;13090;-71
2022/04/18 11:15:39;;;;;;;;;4.25;4.25;;;;;;;;5163160;27;8774;-71
2022/04/18 11:18:08;;;;;;;;;3.00;3.00;;;;;;;;5162653;27;11562;-71
2022/04/18 11:20:35;;;;;;;;;3.00;3.00;;;;;;;;5162850;27;11520;-71
2022/04/18 11:23:13;;;;;;;;;3.00;3.00;;;;;;;;5162473;27;10435;-71
2022/04/18 11:25:50;;;;;;;;;3.00;3.00;;;;;;;;5163270;27;10225;-71
2022/04/18 11:28:15;;;;;;;;;3.00;2.00;;;;;;;;5162538;27;10420;-71
2022/04/18 11:30:41;;;;;;;;;4.00;4.00;;;;;;;;5162254;27;10321;-71
2022/04/18 11:33:06;;;;;;;;;2.75;2.75;;;;;;;;5162157;27;9877;-72
2022/04/18 11:35:31;;;;;;;;;3.00;3.00;;;;;;;;5161938;27;11295;-71
2022/04/18 11:37:57;;;;;;;;;3.50;3.50;;;;;;;;5162071;27;13304;-71
2022/04/18 11:40:22;;;;;;;;;4.00;4.00;;;;;;;;5162378;27;8824;-72
2022/04/18 11:42:48;;;;;;;;;4.25;4.25;;;;;;;;5162402;27;11603;-72
2022/04/18 11:45:26;;;;;;;;;4.00;3.00;;;;;;;;5162339;27;8809;-71
2022/04/18 11:47:52;;;;;;;;;3.25;3.25;;;;;;;;5161999;27;11565;-71
2022/04/18 11:50:23;;;;;;;;;4.50;4.50;;;;;;;;5162357;27;11397;-72
2022/04/18 11:52:49;;;;;;;;;5.25;5.00;;;;;;;;5161996;27;11567;-72
2022/04/18 11:55:18;;;;;;;;;5.00;5.00;;;;;;;;5161646;27;11634;-71
2022/04/18 11:57:45;;;;;;;;;3.00;3.00;;;;;;;;5162040;27;10467;-72
2022/04/18 12:00:14;;;;;;;;;7.50;4.75;;;;;;;;5161546;27;11279;-71
2022/04/18 12:08:09;;;;;;;;;3.00;3.00;;;;;;;;5161882;27;10753;-71
2022/04/18 12:10:36;;;;;;;;;5.00;5.00;;;;;;;;5161491;27;10661;-71
2022/04/18 12:13:09;;;;;;;;;3.25;3.25;;;;;;;;5161007;27;10721;-71
2022/04/18 12:15:34;;;;;;;;;3.00;3.00;;;;;;;;5159989;27;13879;-71
2022/04/18 12:18:10;;;;;;;;;3.00;2.25;;;;;;;;5159349;27;11581;-71
2022/04/18 12:20:40;;;;;;;;;2.75;2.75;;;;;;;;5159684;27;9473;-70
2022/04/18 12:23:05;;;;;;;;;3.00;3.00;;;;;;;;5161371;27;10833;-71
2022/04/18 12:25:32;;;;;;;;;4.25;3.00;;;;;;;;5161221;27;11297;-70
2022/04/18 12:27:58;;;;;;;;;4.25;3.00;;;;;;;;5161793;27;8884;-70
2022/04/18 12:30:24;;;;;;;;;2.50;2.50;;;;;;;;5160067;27;10712;-70
2022/04/18 12:32:49;;;;;;;;;2.75;2.75;;;;;;;;5161062;27;11299;-70
2022/04/18 12:35:16;;;;;;;;;3.00;3.00;;;;;;;;5159570;27;10920;-70
2022/04/18 12:37:45;;;;;;;;;2.00;2.00;;;;;;;;5161568;27;11440;-70
2022/04/18 12:40:14;;;;;;;;;3.00;3.00;;;;;;;;5160822;27;10721;-70
2022/04/18 12:42:40;;;;;;;;;3.00;3.00;;;;;;;;5161263;27;10856;-70
2022/04/18 12:45:05;;;;;;;;;4.00;4.00;;;;;;;;5161149;27;10875;-70
2022/04/18 12:47:32;;;;;;;;;7.00;4.75;;;;;;;;5160804;27;8952;-70
2022/04/18 12:50:09;;;;;;;;;3.50;3.50;;;;;;;;5161341;27;11918;-71
2022/04/18 12:52:43;;;;;;;;;4.00;3.00;;;;;;;;5159420;27;12992;-70
2022/04/18 12:55:09;;;;;;;;;3.00;3.00;;;;;;;;5159295;27;12951;-70
2022/04/18 12:57:34;;;;;;;;;3.00;2.50;;;;;;;;5162006;27;10975;-70
2022/04/18 13:00:14;;;;;;;;;2.75;2.75;;;;;;;;5164717;27;10470;-70
2022/04/18 13:02:39;;;;;;;;;2.00;2.00;;;;;;;;5164530;27;12758;-72
2022/04/18 13:05:05;;;;;;;;;3.75;3.00;;;;;;;;5164369;27;10873;-70
2022/04/18 13:07:30;;;;;;;;;4.00;2.50;;;;;;;;5164846;27;10333;-70
2022/04/18 13:10:03;;;;;;;;;3.00;2.25;;;;;;;;5164210;27;11310;-70
2022/04/18 13:12:33;;;;;;;;;4.00;3.00;;;;;;;;5162914;27;13750;-70
2022/04/18 13:15:02;;;;;;;;;2.50;2.50;;;;;;;;5164407;27;12553;-70
2022/04/18 13:17:28;;;;;;;;;3.50;3.25;;;;;;;;5163937;27;11442;-70
2022/04/18 13:19:53;;;;;;;;;3.00;3.00;;;;;;;;5164543;27;11446;-70
2022/04/18 13:22:18;;;;;;;;;3.50;3.50;;;;;;;;5164385;27;8769;-71
2022/04/18 13:24:43;;;;;;;;;6.00;3.50;;;;;;;;5164394;27;8762;-71
2022/04/18 13:27:25;;;;;;;;;4.25;3.50;;;;;;;;5164186;27;10243;-71
2022/04/18 13:29:50;;;;;;;;;3.00;3.00;;;;;;;;5164802;27;8893;-71
2022/04/18 13:32:15;;;;;;;;;2.00;2.00;;;;;;;;5164255;27;11465;-71
2022/04/18 13:34:41;;;;;;;;;3.25;3.00;;;;;;;;5162924;27;10656;-71
2022/04/18 13:37:06;;;;;;;;;4.25;3.25;;;;;;;;5164464;27;11892;-71
2022/04/18 13:39:31;;;;;;;;;3.25;3.00;;;;;;;;5164355;27;11305;-71
2022/04/18 13:41:57;;;;;;;;;3.50;3.00;;;;;;;;5164180;27;11342;-71
2022/04/18 13:44:22;;;;;;;;;2.00;2.00;;;;;;;;5164188;27;8804;-71
2022/04/18 13:46:47;;;;;;;;;3.25;3.25;;;;;;;;5162682;27;12497;-71
2022/04/18 13:49:13;;;;;;;;;4.25;4.00;;;;;;;;5163504;27;11746;-71
2022/04/18 13:51:39;;;;;;;;;2.75;2.75;;;;;;;;5163796;27;11446;-71
2022/04/18 13:54:05;;;;;;;;;3.75;3.75;;;;;;;;5163316;27;11604;-71
2022/04/18 13:56:31;;;;;;;;;4.25;2.75;;;;;;;;5164295;27;8858;-71
2022/04/18 13:58:57;;;;;;;;;4.00;3.00;;;;;;;;5163945;27;10938;-71
2022/04/18 14:01:23;;;;;;;;;4.00;4.00;;;;;;;;5162443;27;10610;-71
2022/04/18 14:03:49;;;;;;;;;2.25;2.25;;;;;;;;5163652;27;10888;-71
2022/04/18 14:06:14;;;;;;;;;3.00;3.00;;;;;;;;5163462;27;12467;-71
2022/04/18 14:08:40;;;;;;;;;3.00;3.00;;;;;;;;5164176;27;11422;-71
2022/04/18 14:11:06;;;;;;;;;3.00;2.00;;;;;;;;5163845;27;8797;-71
2022/04/18 14:13:32;;;;;;;;;1.50;1.50;;;;;;;;5163961;27;8777;-71
2022/04/18 14:21:25;;;;;;;;;2.00;2.00;;;;;;;;5163741;27;11340;-71
2022/04/18 14:23:51;;;;;;;;;3.25;3.25;;;;;;;;5163111;27;10896;-71
2022/04/18 14:26:16;;;;;;;;;4.00;3.00;;;;;;;;5163309;27;11289;-71
2022/04/18 14:28:42;;;;;;;;;5.00;4.50;;;;;;;;5163317;27;11361;-71
2022/04/18 14:31:08;;;;;;;;;4.00;4.00;;;;;;;;5163620;27;11816;-71
2022/04/18 14:33:33;;;;;;;;;4.00;4.00;;;;;;;;5162612;27;11449;-71
2022/04/18 14:35:58;;;;;;;;;0.00;0.00;;;;;;;;5163290;27;10916;-71
2022/04/18 14:38:24;;;;;;;;;4.75;4.00;;;;;;;;5163854;27;9807;-71
2022/04/18 14:40:49;;;;;;;;;4.00;4.00;;;;;;;;5163594;27;10260;-71
2022/04/18 14:43:17;;;;;;;;;3.75;3.50;;;;;;;;5163907;27;8889;-71
2022/04/18 14:45:43;;;;;;;;;4.00;4.00;;;;;;;;5162877;27;11383;-71
2022/04/18 14:48:08;;;;;;;;;3.75;3.25;;;;;;;;5162774;27;11367;-71
2022/04/18 14:50:34;;;;;;;;;4.00;3.00;;;;;;;;5163636;27;11346;-71
